Terminal Aerodrome Forecast
Issued by NWS

Home | Current Version | Previous Version | Text Only | Print | Product List | Glossary On
Versions: 1 2 3 4 5 6 7 8 9 10 11 12 13 14 15 16 17 18 19 20
419
FTUS41 KBGM 242329
TAFRME
TAF
KRME 242329Z 2500/2524 29007KT P6SM SKC
     FM250300 VRB03KT P6SM SKC
     FM251500 27009KT P6SM SCT050
     FM251800 28010G23KT P6SM BKN050=

USA.gov is the U.S. government's official web portal to all federal, state and local government web resources and services.